createdAt,value
2023-05-16T06:51:56.817Z,98866.2
2023-05-16T06:57:32.982Z,98868.6
2023-05-16T07:03:08.967Z,98874.8
2023-05-16T07:08:49.066Z,98877.1
2023-05-16T07:14:25.172Z,98882.3
2023-05-16T07:20:05.646Z,98880.3
2023-05-16T07:25:42.791Z,98881.7
2023-05-16T07:31:19.189Z,98885.1
2023-05-16T07:36:54.848Z,98884.4
2023-05-16T07:42:30.732Z,98888
2023-05-16T07:48:08.300Z,98893.6
2023-05-16T07:53:46.543Z,98892.2
2023-05-16T07:59:28.280Z,98902.7
2023-05-16T08:05:05.791Z,98903.8
2023-05-16T08:10:41.577Z,98905.5
2023-05-16T08:16:18.952Z,98902.2
2023-05-16T08:21:55.867Z,98904.3
2023-05-16T08:27:32.647Z,98905.6
2023-05-16T08:33:08.423Z,98906.1
2023-05-16T08:39:05.860Z,98905.7
2023-05-16T08:44:42.003Z,98901.2
2023-05-16T08:50:40.650Z,98905.4
2023-05-16T08:56:18.201Z,98906.1
2023-05-16T09:01:53.568Z,98905.7
2023-05-16T09:07:33.324Z,98914.6
2023-05-16T09:13:09.549Z,98915.7
2023-05-16T09:18:46.641Z,98909.9
2023-05-16T09:24:22.550Z,98909.8
2023-05-16T09:29:58.734Z,98909.8
2023-05-16T09:35:46.237Z,98909.6
2023-05-16T09:41:24.777Z,98914.9
2023-05-16T09:47:00.778Z,98911.3
2023-05-16T09:52:36.991Z,98910.3
2023-05-16T09:58:13.307Z,98920.6
2023-05-16T10:03:49.491Z,98919.1
2023-05-16T10:09:49.564Z,98922.9
2023-05-16T10:15:27.714Z,98929.9
2023-05-16T10:21:12.336Z,98926.8
2023-05-16T10:26:47.651Z,98929.7
2023-05-16T10:32:23.556Z,98927
2023-05-16T10:38:00.842Z,98924.8
2023-05-16T10:43:36.911Z,98924
2023-05-16T10:49:35.103Z,98926.2
2023-05-16T10:55:10.723Z,98926
2023-05-16T11:00:47.521Z,98919.9
2023-05-16T11:06:25.916Z,98922.3
2023-05-16T11:12:01.096Z,98929.2
2023-05-16T11:17:42.887Z,98933
2023-05-16T11:23:22.518Z,98925.7
2023-05-16T11:29:00.512Z,98924.2
2023-05-16T11:34:38.075Z,98922.6
2023-05-16T11:40:15.765Z,98925.3
2023-05-16T11:45:50.288Z,98925.7
2023-05-16T11:51:27.305Z,98929.6
2023-05-16T11:57:02.841Z,98929.3
2023-05-16T12:02:39.504Z,98930.5
2023-05-16T12:08:15.668Z,98931.1
2023-05-16T12:13:51.374Z,98931.9
2023-05-16T12:19:26.926Z,98934.4
2023-05-16T12:25:03.496Z,98927
2023-05-16T12:30:40.955Z,98932.8
2023-05-16T12:36:16.769Z,98932.3
2023-05-16T12:41:56.471Z,98934.6
2023-05-16T12:47:42.455Z,98930.8
2023-05-16T12:53:19.760Z,98923.7
2023-05-16T12:58:55.224Z,98922.6
2023-05-16T13:04:38.313Z,98920
2023-05-16T13:10:35.336Z,98915.5
2023-05-16T13:16:21.087Z,98912.4
2023-05-16T13:21:59.194Z,98909.1
2023-05-16T13:27:36.286Z,98901.3
2023-05-16T13:33:11.666Z,98891.6
2023-05-16T13:38:48.266Z,98902.9
2023-05-16T13:44:25.720Z,98902.7
2023-05-16T13:50:03.700Z,98900.9
2023-05-16T13:55:46.722Z,98891.5
2023-05-16T14:01:24.471Z,98884.7
2023-05-16T14:06:59.846Z,98882.4
2023-05-16T14:12:35.238Z,98891.3
2023-05-16T14:18:20.140Z,98890.5
2023-05-16T14:23:55.842Z,98901.8
2023-05-16T14:29:31.163Z,98900.6
2023-05-16T14:35:17.252Z,98903.3
2023-05-16T14:40:54.120Z,98907.4
2023-05-16T14:46:50.408Z,98896.9
2023-05-16T14:52:27.579Z,98888.8
2023-05-16T14:58:03.040Z,98893.8
2023-05-16T15:03:57.191Z,98886.9
2023-05-16T15:09:33.868Z,98885.5
2023-05-16T15:15:16.914Z,98886.8
2023-05-16T15:20:55.364Z,98886
2023-05-16T15:26:52.949Z,98881.9
2023-05-16T15:32:28.150Z,98888.7
2023-05-16T15:38:09.381Z,98888
2023-05-16T15:43:50.275Z,98892.8
2023-05-16T15:49:32.531Z,98893
2023-05-16T15:55:09.516Z,98896.2
2023-05-16T16:00:55.923Z,98897.6
2023-05-16T16:06:30.317Z,98901.9
2023-05-16T16:12:05.815Z,98901.3
2023-05-16T16:17:43.204Z,98910.4
2023-05-16T16:23:18.964Z,98906
2023-05-16T16:28:54.894Z,98909
2023-05-16T16:34:32.341Z,98915.7
2023-05-16T16:40:07.984Z,98920.5
2023-05-16T16:45:44.861Z,98915.3
2023-05-16T16:51:21.208Z,98911.7
2023-05-16T16:56:56.466Z,98910.8
2023-05-16T17:02:33.242Z,98911.6
2023-05-16T17:08:26.855Z,98912.2
2023-05-16T17:14:01.813Z,98919.5
2023-05-16T17:19:56.548Z,98927.2
2023-05-16T17:25:33.286Z,98928.7
2023-05-16T17:31:08.382Z,98926.1
2023-05-16T17:36:44.940Z,98936.3
2023-05-16T17:42:22.349Z,98944.7
2023-05-16T17:47:58.956Z,98940.5
2023-05-16T17:53:35.066Z,98938.3
2023-05-16T17:59:11.828Z,98944.7
2023-05-16T18:04:47.150Z,98948.4
2023-05-16T18:10:23.030Z,98964.6
2023-05-16T18:16:09.279Z,98964.4
2023-05-16T18:21:48.477Z,98964.5
2023-05-16T18:27:27.094Z,98964.8
2023-05-16T18:33:09.694Z,98973.9
2023-05-16T18:39:07.860Z,98975
2023-05-16T18:44:43.460Z,98984.8
2023-05-16T18:50:41.745Z,98992.1
2023-05-16T18:56:24.983Z,98993.6
2023-05-16T19:02:09.674Z,99000.5
2023-05-16T19:07:49.022Z,99016.1
2023-05-16T19:13:24.432Z,99020.5
2023-05-16T19:19:06.318Z,99032.7
2023-05-16T19:24:44.357Z,99041.4
2023-05-16T19:30:21.966Z,99051.1
2023-05-16T19:36:04.469Z,99056.3
2023-05-16T19:42:08.674Z,99065.5
2023-05-16T19:47:48.778Z,99066.9
2023-05-16T19:53:37.338Z,99078.5
2023-05-16T19:59:13.977Z,99080.7
2023-05-16T20:05:12.350Z,99085.3
2023-05-16T20:10:57.594Z,99095.5
2023-05-16T20:16:37.876Z,99099.1
2023-05-16T20:22:17.646Z,99104.5
2023-05-16T20:27:57.399Z,99111.2
2023-05-16T20:33:35.131Z,99119.2
2023-05-16T20:39:12.627Z,99119.6
2023-05-16T20:44:50.130Z,99121.9
2023-05-16T20:50:48.361Z,99127
2023-05-16T20:56:23.397Z,99131.1
2023-05-16T21:01:59.712Z,99136.7
2023-05-16T21:07:48.168Z,99144.5
2023-05-16T21:13:26.523Z,99144.8
2023-05-16T21:19:06.195Z,99152.9
2023-05-16T21:25:06.815Z,99152.5
2023-05-16T21:31:11.546Z,99154.7
2023-05-16T21:36:57.816Z,99162.3
2023-05-16T21:42:33.842Z,99156.9
2023-05-16T21:48:24.807Z,99154.1
2023-05-16T21:54:03.078Z,99157.7
2023-05-16T21:59:40.577Z,99154.5
2023-05-16T22:05:16.433Z,99155.5
2023-05-16T22:10:53.280Z,99156.2
2023-05-16T22:16:29.266Z,99160.3
2023-05-16T22:22:05.114Z,99160.5
2023-05-16T22:27:58.045Z,99161.6
2023-05-16T22:33:43.015Z,99165.2
2023-05-16T22:39:20.362Z,99169.4
2023-05-16T22:45:07.934Z,99170.7
2023-05-16T22:51:08.679Z,99172.1
2023-05-16T22:56:41.678Z,99172.9
2023-05-16T23:02:18.040Z,99166.2
2023-05-16T23:07:53.625Z,99160.5
2023-05-16T23:13:29.432Z,99156.1
2023-05-16T23:19:10.591Z,99151.4
2023-05-16T23:24:47.143Z,99152.1
2023-05-16T23:30:23.994Z,99147.6
2023-05-16T23:36:08.999Z,99138
2023-05-16T23:41:45.197Z,99138
2023-05-16T23:47:24.720Z,99131.3
2023-05-16T23:53:02.972Z,99122.5
2023-05-16T23:58:51.752Z,99118.5
